TimeCEST,TemperatureF,Dew PointF,Humidity,Sea Level PressureIn,VisibilityMPH,Wind Direction,Wind SpeedMPH,Gust SpeedMPH,PrecipitationIn,Events,Conditions,WindDirDegrees,DateUTC
2:00 AM,61,60,96,29.99,,SSW,2.2,,,,,200,2012-10-03 00:00:00
4:45 AM,59.0,59.0,100,29.98,1.9,SSW,8.1,-,N/A,,Overcast,200,2012-10-03 02:45:00
5:45 AM,60.8,59.0,94,29.98,1.9,SSW,10.4,-,N/A,,Overcast,210,2012-10-03 03:45:00
5:52 AM,60.8,59.0,94,29.98,-9999.0,SSW,11.5,-,N/A,,Unknown,210,2012-10-03 03:52:00
6:14 AM,60.8,59.0,94,29.98,0.9,SSW,10.4,-,N/A,,Light Drizzle,200,2012-10-03 04:14:00
6:15 AM,60.8,59.0,94,29.98,0.9,SSW,10.4,-,N/A,,Light Drizzle,210,2012-10-03 04:15:00
6:45 AM,59.0,59.0,100,29.98,0.7,South,11.5,-,N/A,,Light Drizzle,190,2012-10-03 04:45:00
7:00 AM,-9999,-9999,N/A,-9999,0.9,SSW,10.4,-,N/A,,Light Drizzle,200,2012-10-03 05:00:00
7:15 AM,59.0,59.0,100,30.01,0.7,SSW,12.7,-,N/A,,Light Drizzle,200,2012-10-03 05:15:00
7:45 AM,59.0,59.0,100,30.01,0.5,SSW,15.0,-,N/A,,Light Drizzle,200,2012-10-03 05:45:00
7:49 AM,59.0,59.0,100,30.01,0.5,SSW,13.8,-,N/A,,Light Drizzle,200,2012-10-03 05:49:00
8:00 AM,59,58,97,30.00,0,SSW,13.4,,,Rain,Light Drizzle,200,2012-10-03 06:00:00
8:15 AM,59.0,57.2,94,30.01,0.6,SSW,13.8,-,N/A,Fog,Fog,200,2012-10-03 06:15:00
8:45 AM,59.0,57.2,94,30.01,0.9,South,11.5,-,N/A,,Overcast,190,2012-10-03 06:45:00
8:46 AM,59.0,57.2,94,30.04,0.9,South,12.7,-,N/A,,Overcast,190,2012-10-03 06:46:00
9:15 AM,59.0,57.2,94,30.04,1.1,SSW,11.5,-,N/A,,Overcast,210,2012-10-03 07:15:00
9:45 AM,59.0,57.2,94,30.04,1.2,South,11.5,-,N/A,,Overcast,190,2012-10-03 07:45:00
10:00 AM,-9999,-9999,N/A,-9999,1.9,SSW,13.8,-,N/A,,Scattered Clouds,200,2012-10-03 08:00:00
10:15 AM,59.0,57.2,94,30.04,1.6,SSW,11.5,-,N/A,,Mostly Cloudy,210,2012-10-03 08:15:00
10:45 AM,59.0,57.2,94,30.04,2.5,SSW,12.7,-,N/A,,Mostly Cloudy,200,2012-10-03 08:45:00
11:15 AM,60.8,57.2,88,30.04,4.3,SSW,15.0,-,N/A,,Mostly Cloudy,210,2012-10-03 09:15:00
11:45 AM,59.0,57.2,94,30.06,4.3,SSW,10.4,-,N/A,,Mostly Cloudy,210,2012-10-03 09:45:00
12:15 PM,59.0,57.2,94,30.06,4.3,SW,12.7,-,N/A,,Mostly Cloudy,220,2012-10-03 10:15:00
12:45 PM,60.8,57.2,88,30.04,5.0,SSW,12.7,-,N/A,,Overcast,210,2012-10-03 10:45:00
1:00 PM,-9999,-9999,N/A,-9999,6.2,SSW,13.8,-,N/A,,Mostly Cloudy,200,2012-10-03 11:00:00
1:15 PM,62.6,55.4,77,30.04,5.0,SW,13.8,-,N/A,,Overcast,230,2012-10-03 11:15:00
1:45 PM,62.6,55.4,77,30.04,6.2,SW,11.5,-,N/A,,Overcast,220,2012-10-03 11:45:00
2:00 PM,63,56,71,30.03,6,SW,11.2,,,,Partly Cloudy,220,2012-10-03 12:00:00
2:15 PM,62.6,55.4,77,30.04,6.2,SW,11.5,-,N/A,,Overcast,220,2012-10-03 12:15:00
2:45 PM,64.4,57.2,77,30.04,6.2,SW,9.2,-,N/A,,Mostly Cloudy,220,2012-10-03 12:45:00
3:15 PM,64.4,55.4,73,30.04,6.2,SW,10.4,-,N/A,,Mostly Cloudy,230,2012-10-03 13:15:00
3:45 PM,64.4,55.4,73,30.04,6.2,WSW,8.1,-,N/A,,Mostly Cloudy,240,2012-10-03 13:45:00
4:00 PM,-9999,-9999,N/A,-9999,6.2,SW,11.5,-,N/A,,Mostly Cloudy,220,2012-10-03 14:00:00
4:15 PM,66.2,57.2,73,30.04,6.2,WSW,6.9,-,N/A,,Mostly Cloudy,250,2012-10-03 14:15:00
4:45 PM,66.2,55.4,68,30.04,6.2,WSW,8.1,-,N/A,,Mostly Cloudy,250,2012-10-03 14:45:00
5:15 PM,64.4,55.4,73,30.04,6.2,West,2.3,-,N/A,,Mostly Cloudy,280,2012-10-03 15:15:00
6:15 PM,64.4,57.2,77,30.04,6.2,SSW,1.2,-,N/A,,Scattered Clouds,200,2012-10-03 16:15:00
6:45 PM,62.6,57.2,82,30.04,6.2,SSE,3.5,-,N/A,,Scattered Clouds,150,2012-10-03 16:45:00
7:15 PM,60.8,57.2,88,30.04,6.2,SSE,4.6,-,N/A,,Scattered Clouds,160,2012-10-03 17:15:00
7:45 PM,59.0,57.2,94,30.04,6.2,East,1.2,-,N/A,,Scattered Clouds,80,2012-10-03 17:45:00
8:00 PM,59,56,88,30.04,9,East,2.2,,,,Partly Cloudy,80,2012-10-03 18:00:00
8:25 PM,-9999,-9999,N/A,-9999,-9999.0,North,-9999.0,-,N/A,,Unknown,0,2012-10-03 18:25:00